createdAt,value
2019-02-25T00:01:13.187Z,70.40
2019-02-25T00:06:14.670Z,70.50
2019-02-25T00:11:16.091Z,70.30
2019-02-25T00:16:17.509Z,70.50
2019-02-25T00:21:19.133Z,70.30
2019-02-25T00:26:20.533Z,70.10
2019-02-25T00:31:21.863Z,70.10
2019-02-25T00:36:23.180Z,70.10
2019-02-25T00:41:24.515Z,70.10
2019-02-25T00:46:25.840Z,69.90
2019-02-25T00:51:27.355Z,69.80
2019-02-25T00:56:28.766Z,69.50
2019-02-25T01:01:30.242Z,69.10
2019-02-25T01:06:31.869Z,69.00
2019-02-25T01:11:33.351Z,69.20
2019-02-25T01:16:34.661Z,69.10
2019-02-25T01:21:36.050Z,68.80
2019-02-25T01:26:37.383Z,67.90
2019-02-25T01:31:38.683Z,67.20
2019-02-25T01:36:40.073Z,66.40
2019-02-25T01:41:41.477Z,66.30
2019-02-25T01:46:42.883Z,66.40
2019-02-25T01:51:44.299Z,66.60
2019-02-25T01:56:47.307Z,66.70
2019-02-25T02:01:48.613Z,67.00
2019-02-25T02:06:49.927Z,66.80
2019-02-25T02:11:51.250Z,66.40
2019-02-25T02:16:52.586Z,66.30
2019-02-25T02:21:53.868Z,66.60
2019-02-25T02:26:55.313Z,66.80
2019-02-25T02:31:56.633Z,67.10
2019-02-25T02:36:58.046Z,66.90
2019-02-25T02:42:17.405Z,66.90
2019-02-25T02:47:33.268Z,66.60
2019-02-25T02:52:34.538Z,66.40
2019-02-25T02:57:37.548Z,66.50
2019-02-25T03:02:38.825Z,66.50
2019-02-25T03:07:40.377Z,66.50
2019-02-25T03:12:42.764Z,66.70
2019-02-25T03:17:44.267Z,66.70
2019-02-25T03:22:45.893Z,66.80
2019-02-25T03:27:47.219Z,67.00
2019-02-25T03:32:49.069Z,67.10
2019-02-25T03:37:50.632Z,67.30
2019-02-25T03:42:51.973Z,67.60
2019-02-25T03:47:53.305Z,67.80
2019-02-25T03:52:54.633Z,67.80
2019-02-25T03:57:56.176Z,68.00
2019-02-25T04:02:57.447Z,68.10
2019-02-25T04:07:58.861Z,68.40
2019-02-25T04:13:00.143Z,68.70
2019-02-25T04:18:01.466Z,69.80
2019-02-25T04:23:02.857Z,69.40
2019-02-25T04:28:04.263Z,69.60
2019-02-25T04:33:05.576Z,69.80
2019-02-25T04:38:06.887Z,70.10
2019-02-25T04:43:08.478Z,70.70
2019-02-25T04:48:09.886Z,70.00
2019-02-25T04:53:11.149Z,70.30
2019-02-25T04:58:12.575Z,70.30
2019-02-25T05:03:13.873Z,70.70
2019-02-25T05:08:15.179Z,70.80
2019-02-25T05:13:16.470Z,70.90
2019-02-25T05:18:17.841Z,71.00
2019-02-25T05:23:19.238Z,71.30
2019-02-25T05:28:20.644Z,71.20
2019-02-25T05:33:21.971Z,71.00
2019-02-25T05:38:23.318Z,70.50
2019-02-25T05:43:24.713Z,70.30
2019-02-25T05:48:26.025Z,70.30
2019-02-25T05:53:27.448Z,70.30
2019-02-25T05:58:28.726Z,70.40
2019-02-25T06:03:30.043Z,70.60
2019-02-25T06:08:31.315Z,70.80
2019-02-25T06:13:32.629Z,70.90
2019-02-25T06:18:33.942Z,70.90
2019-02-25T06:23:35.296Z,70.60
2019-02-25T06:28:55.078Z,70.60
2019-02-25T06:33:56.415Z,70.60
2019-02-25T06:38:57.755Z,70.60
2019-02-25T06:43:59.068Z,70.70
2019-02-25T06:49:00.371Z,70.70
2019-02-25T06:54:01.713Z,70.70
2019-02-25T06:59:03.222Z,70.90
2019-02-25T07:04:12.245Z,71.00
2019-02-25T07:09:18.051Z,71.10
2019-02-25T07:19:42.719Z,71.50
2019-02-25T07:24:52.927Z,71.90
2019-02-25T07:29:55.722Z,72.00
2019-02-25T07:35:15.355Z,71.40
2019-02-25T07:40:33.766Z,70.50
2019-02-25T07:45:40.069Z,70.00
2019-02-25T07:50:47.196Z,69.70
2019-02-25T07:56:04.833Z,69.70
2019-02-25T08:01:10.789Z,69.40
2019-02-25T08:06:26.063Z,69.00
2019-02-25T08:11:31.876Z,68.40
2019-02-25T08:16:35.091Z,67.70
2019-02-25T08:21:38.323Z,65.70
2019-02-25T08:26:50.249Z,64.20
2019-02-25T08:31:53.486Z,64.00
2019-02-25T08:37:08.235Z,63.60
2019-02-25T08:42:15.124Z,61.20
2019-02-25T08:47:21.012Z,60.30
2019-02-25T08:52:22.332Z,58.30
2019-02-25T08:57:23.872Z,58.50
2019-02-25T09:02:25.267Z,57.20
2019-02-25T09:07:26.704Z,55.60
2019-02-25T09:12:28.095Z,55.00
2019-02-25T09:17:29.555Z,53.30
2019-02-25T09:22:31.021Z,53.70
2019-02-25T09:27:32.360Z,53.00
2019-02-25T09:32:33.761Z,53.10
2019-02-25T09:37:37.223Z,51.90
2019-02-25T09:42:38.605Z,51.90
2019-02-25T09:47:40.129Z,51.70
2019-02-25T09:52:41.541Z,52.10
2019-02-25T09:57:42.845Z,52.10
2019-02-25T10:02:44.256Z,51.90
2019-02-25T10:07:45.617Z,51.70
2019-02-25T10:12:46.993Z,51.60
2019-02-25T10:17:48.426Z,51.10
2019-02-25T10:22:49.716Z,51.20
2019-02-25T10:27:51.045Z,51.50
2019-02-25T10:32:52.525Z,51.50
2019-02-25T10:37:54.100Z,51.40
2019-02-25T10:42:55.766Z,51.10
2019-02-25T10:47:58.749Z,50.60
2019-02-25T10:53:03.384Z,50.40
2019-02-25T10:58:07.882Z,50.30
2019-02-25T11:03:10.735Z,50.00
2019-02-25T11:08:14.469Z,49.30
2019-02-25T11:13:15.853Z,49.10
2019-02-25T11:18:19.575Z,49.20
2019-02-25T11:23:21.624Z,49.20
2019-02-25T11:28:26.053Z,48.30
2019-02-25T11:33:29.661Z,48.60
2019-02-25T11:38:34.228Z,48.30
2019-02-25T11:43:34.438Z,48.10
2019-02-25T11:48:35.787Z,48.20
2019-02-25T11:53:37.067Z,48.10
2019-02-25T11:58:38.449Z,47.40
2019-02-25T12:03:39.777Z,46.90
2019-02-25T12:08:41.069Z,46.70
2019-02-25T12:13:42.386Z,46.90
2019-02-25T12:18:43.805Z,46.70
2019-02-25T12:23:45.118Z,46.60
2019-02-25T12:28:46.602Z,46.90
2019-02-25T12:33:48.058Z,46.90
2019-02-25T12:38:49.703Z,46.40
2019-02-25T12:43:50.988Z,46.40
2019-02-25T12:48:52.291Z,46.30
2019-02-25T12:53:53.835Z,46.20
2019-02-25T12:58:55.166Z,45.90
2019-02-25T13:03:56.449Z,45.90
2019-02-25T13:08:57.741Z,45.50
2019-02-25T13:13:59.051Z,45.70
2019-02-25T13:19:00.378Z,45.90
2019-02-25T13:24:02.577Z,46.20
2019-02-25T13:29:05.118Z,46.00
2019-02-25T13:34:06.569Z,46.00
2019-02-25T13:39:08.050Z,45.80
2019-02-25T13:44:09.352Z,45.70
2019-02-25T13:49:10.642Z,45.70
2019-02-25T13:54:11.977Z,45.50
2019-02-25T13:59:13.346Z,45.20
2019-02-25T14:04:14.716Z,45.20
2019-02-25T14:09:16.122Z,45.00
2019-02-25T14:14:17.743Z,45.20
2019-02-25T14:19:19.185Z,44.90
2019-02-25T14:24:20.916Z,44.70
2019-02-25T14:29:26.213Z,45.30
2019-02-25T14:34:25.873Z,44.50
2019-02-25T14:39:28.515Z,44.60
2019-02-25T14:44:33.131Z,44.60
2019-02-25T14:49:35.249Z,44.80
2019-02-25T14:54:37.654Z,44.60
2019-02-25T14:59:40.162Z,44.80
2019-02-25T15:04:42.215Z,44.30
2019-02-25T15:09:45.737Z,44.00
2019-02-25T15:14:47.664Z,44.50
2019-02-25T15:19:49.149Z,44.60
2019-02-25T15:24:52.418Z,45.00
2019-02-25T15:29:53.712Z,45.00
2019-02-25T15:34:57.140Z,45.00
2019-02-25T15:39:58.589Z,45.00
2019-02-25T15:44:59.981Z,44.80
2019-02-25T15:50:03.693Z,45.10
2019-02-25T15:55:08.920Z,44.90
2019-02-25T16:00:21.274Z,44.80
2019-02-25T16:05:27.433Z,44.50
2019-02-25T16:10:28.782Z,44.80
2019-02-25T16:15:30.701Z,45.10
2019-02-25T16:20:32.708Z,45.40
2019-02-25T16:25:34.576Z,45.30
2019-02-25T16:30:36.440Z,45.50
2019-02-25T16:35:38.972Z,45.70
2019-02-25T16:40:41.628Z,46.10
2019-02-25T16:45:45.292Z,46.30
2019-02-25T16:50:46.780Z,46.80
2019-02-25T16:55:49.234Z,47.60
2019-02-25T17:00:51.526Z,47.90
2019-02-25T17:05:55.412Z,48.20
2019-02-25T17:10:57.890Z,48.50
2019-02-25T17:16:00.135Z,48.90
2019-02-25T17:21:01.403Z,49.20
2019-02-25T17:26:03.874Z,49.70
2019-02-25T17:31:08.678Z,50.20
2019-02-25T17:36:12.217Z,50.70
2019-02-25T17:41:13.916Z,51.10
2019-02-25T17:46:15.307Z,51.50
2019-02-25T17:51:35.061Z,52.10
2019-02-25T17:56:36.755Z,52.50
2019-02-25T18:01:39.548Z,53.20
2019-02-25T18:06:41.734Z,53.70
2019-02-25T18:11:45.230Z,54.40
2019-02-25T18:16:48.829Z,55.10
2019-02-25T18:21:50.314Z,55.70
2019-02-25T18:26:51.616Z,55.80
2019-02-25T18:31:53.269Z,56.70
2019-02-25T18:36:58.342Z,57.20
2019-02-25T18:42:00.424Z,57.80
2019-02-25T18:47:02.689Z,58.20
2019-02-25T18:52:05.495Z,58.30
2019-02-25T18:57:07.655Z,58.70
2019-02-25T19:02:10.625Z,59.30
2019-02-25T19:07:13.490Z,59.60
2019-02-25T19:12:14.887Z,60.20
2019-02-25T19:17:17.454Z,60.90
2019-02-25T19:22:21.079Z,61.80
2019-02-25T19:27:22.664Z,62.30
2019-02-25T19:32:24.309Z,62.70
2019-02-25T19:37:28.886Z,63.10
2019-02-25T19:42:29.588Z,63.80
2019-02-25T19:47:33.064Z,64.90
2019-02-25T19:52:37.087Z,65.20
2019-02-25T19:57:38.848Z,65.40
2019-02-25T20:02:40.251Z,65.80
2019-02-25T20:07:41.988Z,66.50
2019-02-25T20:12:43.594Z,66.70
2019-02-25T20:17:46.729Z,67.00
2019-02-25T20:22:48.329Z,67.10
2019-02-25T20:27:52.733Z,67.10
2019-02-25T20:32:54.184Z,67.60
2019-02-25T20:37:57.525Z,67.90
2019-02-25T20:43:00.479Z,68.10
2019-02-25T20:48:03.226Z,68.20
2019-02-25T20:53:06.508Z,68.60
2019-02-25T20:58:08.064Z,68.90
2019-02-25T21:03:12.083Z,69.10
2019-02-25T21:08:15.173Z,69.60
2019-02-25T21:13:17.702Z,70.10
2019-02-25T21:18:20.325Z,70.30
2019-02-25T21:23:22.328Z,70.50
2019-02-25T21:28:27.031Z,70.80
2019-02-25T21:33:28.275Z,71.50
2019-02-25T21:38:30.375Z,71.70
2019-02-25T21:43:31.852Z,72.00
2019-02-25T21:48:34.823Z,73.10
2019-02-25T21:53:36.349Z,72.70
2019-02-25T21:58:37.649Z,73.20
2019-02-25T22:03:41.305Z,73.50
2019-02-25T22:08:42.184Z,73.50
2019-02-25T22:13:43.519Z,73.80
2019-02-25T22:18:44.830Z,73.70
2019-02-25T22:23:46.239Z,73.70
2019-02-25T22:28:48.490Z,74.10
2019-02-25T22:33:49.786Z,74.40
2019-02-25T22:38:51.215Z,75.00
2019-02-25T22:43:52.641Z,75.10
2019-02-25T22:48:53.963Z,75.20
2019-02-25T22:53:55.295Z,75.40
2019-02-25T22:58:58.213Z,75.20
2019-02-25T23:03:59.908Z,75.50
2019-02-25T23:09:01.442Z,75.70
2019-02-25T23:14:03.558Z,75.90
2019-02-25T23:19:05.086Z,76.30
2019-02-25T23:24:07.342Z,76.40
2019-02-25T23:29:08.900Z,76.50
2019-02-25T23:34:10.785Z,76.70
2019-02-25T23:39:17.050Z,76.90
2019-02-25T23:44:17.499Z,76.90
2019-02-25T23:49:27.063Z,77.00
2019-02-25T23:54:25.379Z,77.40
2019-02-25T23:59:26.699Z,77.50
